sensor_id;sensor_type;location;lat;lon;timestamp;pressure;altitude;pressure_sealevel;temperature;humidity
75521;BME280;64102;48.628;9.002;2024-02-26T00:00:09;94119.00;;;3.52;100.00
75521;BME280;64102;48.628;9.002;2024-02-26T00:02:36;94122.19;;;3.54;100.00
75521;BME280;64102;48.628;9.002;2024-02-26T00:05:06;94120.31;;;3.56;100.00
75521;BME280;64102;48.628;9.002;2024-02-26T00:07:31;94117.03;;;3.64;100.00
75521;BME280;64102;48.628;9.002;2024-02-26T00:09:57;94116.16;;;3.73;100.00
75521;BME280;64102;48.628;9.002;2024-02-26T00:12:22;94111.75;;;3.75;100.00
75521;BME280;64102;48.628;9.002;2024-02-26T00:14:47;94118.22;;;3.69;100.00
75521;BME280;64102;48.628;9.002;2024-02-26T00:17:15;94114.88;;;3.69;100.00
75521;BME280;64102;48.628;9.002;2024-02-26T00:19:40;94115.94;;;3.66;100.00
75521;BME280;64102;48.628;9.002;2024-02-26T00:22:05;94108.44;;;3.65;100.00
75521;BME280;64102;48.628;9.002;2024-02-26T00:24:31;94112.44;;;3.67;100.00
75521;BME280;64102;48.628;9.002;2024-02-26T00:26:56;94115.38;;;3.72;100.00
75521;BME280;64102;48.628;9.002;2024-02-26T00:29:21;94109.69;;;3.78;100.00
75521;BME280;64102;48.628;9.002;2024-02-26T00:31:47;94106.72;;;3.83;100.00
75521;BME280;64102;48.628;9.002;2024-02-26T00:34:12;94101.66;;;3.91;100.00
75521;BME280;64102;48.628;9.002;2024-02-26T00:36:38;94102.25;;;3.85;100.00
75521;BME280;64102;48.628;9.002;2024-02-26T00:39:03;94105.16;;;3.90;100.00
75521;BME280;64102;48.628;9.002;2024-02-26T00:41:29;94106.41;;;3.86;100.00
75521;BME280;64102;48.628;9.002;2024-02-26T00:43:54;94072.50;;;3.93;100.00
75521;BME280;64102;48.628;9.002;2024-02-26T00:46:20;94076.34;;;3.97;100.00
75521;BME280;64102;48.628;9.002;2024-02-26T00:48:45;94085.63;;;3.63;100.00
75521;BME280;64102;48.628;9.002;2024-02-26T00:51:10;94087.97;;;3.56;100.00
75521;BME280;64102;48.628;9.002;2024-02-26T00:53:36;94091.03;;;3.60;100.00
75521;BME280;64102;48.628;9.002;2024-02-26T00:56:01;94091.91;;;3.69;100.00
75521;BME280;64102;48.628;9.002;2024-02-26T00:58:27;94080.16;;;3.76;100.00
75521;BME280;64102;48.628;9.002;2024-02-26T01:00:53;94076.31;;;3.72;100.00
75521;BME280;64102;48.628;9.002;2024-02-26T01:03:18;94077.69;;;3.84;100.00
75521;BME280;64102;48.628;9.002;2024-02-26T01:05:44;94080.47;;;3.73;100.00
75521;BME280;64102;48.628;9.002;2024-02-26T01:08:10;94085.13;;;3.95;100.00
75521;BME280;64102;48.628;9.002;2024-02-26T01:10:35;94093.50;;;4.05;100.00
75521;BME280;64102;48.628;9.002;2024-02-26T01:13:01;94102.22;;;4.02;100.00
75521;BME280;64102;48.628;9.002;2024-02-26T01:15:26;94111.63;;;4.02;100.00
75521;BME280;64102;48.628;9.002;2024-02-26T01:17:52;94102.09;;;4.04;100.00
75521;BME280;64102;48.628;9.002;2024-02-26T01:20:17;94106.94;;;4.15;100.00
75521;BME280;64102;48.628;9.002;2024-02-26T01:22:43;94113.38;;;4.19;100.00
75521;BME280;64102;48.628;9.002;2024-02-26T01:25:09;94116.03;;;4.35;100.00
75521;BME280;64102;48.628;9.002;2024-02-26T01:27:37;94111.69;;;4.54;92.93
75521;BME280;64102;48.628;9.002;2024-02-26T01:30:05;94111.75;;;4.95;79.89
75521;BME280;64102;48.628;9.002;2024-02-26T01:32:31;94110.94;;;5.29;73.91
75521;BME280;64102;48.628;9.002;2024-02-26T01:34:57;94106.97;;;5.43;69.53
75521;BME280;64102;48.628;9.002;2024-02-26T01:37:22;94117.41;;;5.57;68.37
75521;BME280;64102;48.628;9.002;2024-02-26T01:39:48;94120.47;;;5.61;66.68
75521;BME280;64102;48.628;9.002;2024-02-26T01:42:13;94129.44;;;5.73;65.26
75521;BME280;64102;48.628;9.002;2024-02-26T01:44:39;94131.84;;;5.82;64.83
75521;BME280;64102;48.628;9.002;2024-02-26T01:47:07;94133.47;;;5.83;69.13
75521;BME280;64102;48.628;9.002;2024-02-26T01:49:33;94154.56;;;5.85;72.86
75521;BME280;64102;48.628;9.002;2024-02-26T01:52:01;94145.09;;;5.70;74.17
75521;BME280;64102;48.628;9.002;2024-02-26T01:54:28;94145.91;;;5.62;73.19
75521;BME280;64102;48.628;9.002;2024-02-26T01:56:54;94147.91;;;5.51;79.22
75521;BME280;64102;48.628;9.002;2024-02-26T01:59:20;94137.00;;;5.32;83.89
75521;BME280;64102;48.628;9.002;2024-02-26T02:01:48;94134.22;;;5.18;86.00
75521;BME280;64102;48.628;9.002;2024-02-26T02:04:16;94136.59;;;5.11;85.29
75521;BME280;64102;48.628;9.002;2024-02-26T02:06:42;94129.63;;;5.29;83.60
75521;BME280;64102;48.628;9.002;2024-02-26T02:09:09;94130.13;;;6.07;79.54
75521;BME280;64102;48.628;9.002;2024-02-26T02:11:35;94118.63;;;6.19;80.18
75521;BME280;64102;48.628;9.002;2024-02-26T02:14:00;94122.63;;;6.46;76.52
75521;BME280;64102;48.628;9.002;2024-02-26T02:16:25;94133.16;;;6.75;75.74
75521;BME280;64102;48.628;9.002;2024-02-26T02:18:51;94137.16;;;6.62;77.24
75521;BME280;64102;48.628;9.002;2024-02-26T02:21:16;94152.25;;;6.41;78.35
75521;BME280;64102;48.628;9.002;2024-02-26T02:23:41;94148.25;;;6.14;78.71
75521;BME280;64102;48.628;9.002;2024-02-26T02:26:12;94153.34;;;5.98;78.64
75521;BME280;64102;48.628;9.002;2024-02-26T02:28:38;94150.28;;;5.94;79.42
75521;BME280;64102;48.628;9.002;2024-02-26T02:31:04;94144.16;;;5.79;79.49
75521;BME280;64102;48.628;9.002;2024-02-26T02:33:30;94137.25;;;5.63;82.73
75521;BME280;64102;48.628;9.002;2024-02-26T02:35:55;94136.47;;;5.71;83.72
75521;BME280;64102;48.628;9.002;2024-02-26T02:38:21;94121.75;;;5.65;80.53
75521;BME280;64102;48.628;9.002;2024-02-26T02:40:46;94123.94;;;5.52;85.05
75521;BME280;64102;48.628;9.002;2024-02-26T02:43:11;94122.31;;;5.43;90.18
75521;BME280;64102;48.628;9.002;2024-02-26T02:45:37;94114.78;;;5.33;96.17
75521;BME280;64102;48.628;9.002;2024-02-26T02:48:03;94122.03;;;5.54;84.39
75521;BME280;64102;48.628;9.002;2024-02-26T02:50:28;94105.72;;;5.63;81.23
75521;BME280;64102;48.628;9.002;2024-02-26T02:52:54;94124.31;;;5.81;83.77
75521;BME280;64102;48.628;9.002;2024-02-26T02:55:20;94136.72;;;6.42;79.24
75521;BME280;64102;48.628;9.002;2024-02-26T02:57:45;94142.94;;;6.48;82.05
75521;BME280;64102;48.628;9.002;2024-02-26T03:00:11;94141.69;;;6.27;82.24
75521;BME280;64102;48.628;9.002;2024-02-26T03:02:37;94141.50;;;6.21;84.65
75521;BME280;64102;48.628;9.002;2024-02-26T03:05:03;94134.63;;;5.97;91.45
75521;BME280;64102;48.628;9.002;2024-02-26T03:07:29;94126.94;;;5.89;93.36
75521;BME280;64102;48.628;9.002;2024-02-26T03:09:54;94130.88;;;5.75;92.13
75521;BME280;64102;48.628;9.002;2024-02-26T03:12:19;94129.22;;;5.58;98.08
75521;BME280;64102;48.628;9.002;2024-02-26T03:14:45;94123.75;;;5.45;99.62
75521;BME280;64102;48.628;9.002;2024-02-26T03:17:10;94123.91;;;5.35;100.00
75521;BME280;64102;48.628;9.002;2024-02-26T03:19:35;94122.28;;;5.26;98.50
75521;BME280;64102;48.628;9.002;2024-02-26T03:22:01;94111.06;;;5.27;94.71
75521;BME280;64102;48.628;9.002;2024-02-26T03:24:26;94104.03;;;5.21;97.83
75521;BME280;64102;48.628;9.002;2024-02-26T03:26:51;94091.41;;;5.20;100.00
75521;BME280;64102;48.628;9.002;2024-02-26T03:29:17;94090.44;;;5.13;100.00
75521;BME280;64102;48.628;9.002;2024-02-26T03:31:42;94088.94;;;5.02;100.00
75521;BME280;64102;48.628;9.002;2024-02-26T03:34:08;94095.47;;;4.96;100.00
75521;BME280;64102;48.628;9.002;2024-02-26T03:36:34;94092.44;;;5.01;100.00
75521;BME280;64102;48.628;9.002;2024-02-26T03:38:59;94099.97;;;5.03;100.00
75521;BME280;64102;48.628;9.002;2024-02-26T03:41:24;94096.25;;;4.97;100.00
75521;BME280;64102;48.628;9.002;2024-02-26T03:43:50;94096.91;;;4.91;100.00
75521;BME280;64102;48.628;9.002;2024-02-26T03:46:15;94085.66;;;4.84;100.00
75521;BME280;64102;48.628;9.002;2024-02-26T03:48:41;94079.28;;;4.88;100.00
75521;BME280;64102;48.628;9.002;2024-02-26T03:51:08;94069.25;;;4.86;100.00
75521;BME280;64102;48.628;9.002;2024-02-26T03:53:34;94073.28;;;5.05;100.00
75521;BME280;64102;48.628;9.002;2024-02-26T03:56:03;94074.38;;;4.94;100.00
75521;BME280;64102;48.628;9.002;2024-02-26T03:58:29;94066.28;;;5.07;100.00
75521;BME280;64102;48.628;9.002;2024-02-26T04:00:54;94070.19;;;4.85;100.00
75521;BME280;64102;48.628;9.002;2024-02-26T04:03:19;94079.38;;;4.70;100.00
75521;BME280;64102;48.628;9.002;2024-02-26T04:05:45;94080.78;;;4.65;100.00
75521;BME280;64102;48.628;9.002;2024-02-26T04:08:10;94097.34;;;4.61;100.00
75521;BME280;64102;48.628;9.002;2024-02-26T04:10:36;94089.66;;;4.53;100.00
75521;BME280;64102;48.628;9.002;2024-02-26T04:13:04;94084.84;;;4.49;100.00
75521;BME280;64102;48.628;9.002;2024-02-26T04:15:29;94088.03;;;4.51;100.00
75521;BME280;64102;48.628;9.002;2024-02-26T04:17:55;94077.03;;;4.51;100.00
75521;BME280;64102;48.628;9.002;2024-02-26T04:20:20;94092.28;;;4.69;100.00
75521;BME280;64102;48.628;9.002;2024-02-26T04:22:47;94095.09;;;4.83;100.00
75521;BME280;64102;48.628;9.002;2024-02-26T04:25:12;94102.06;;;4.73;100.00
75521;BME280;64102;48.628;9.002;2024-02-26T04:27:38;94102.38;;;4.70;100.00
75521;BME280;64102;48.628;9.002;2024-02-26T04:30:05;94101.00;;;5.18;100.00
75521;BME280;64102;48.628;9.002;2024-02-26T04:32:31;94096.44;;;5.54;100.00
75521;BME280;64102;48.628;9.002;2024-02-26T04:34:57;94101.03;;;6.08;95.98
75521;BME280;64102;48.628;9.002;2024-02-26T04:37:22;94100.22;;;6.40;92.37
75521;BME280;64102;48.628;9.002;2024-02-26T04:39:47;94092.34;;;6.58;88.60
75521;BME280;64102;48.628;9.002;2024-02-26T04:42:13;94096.81;;;6.64;87.47
75521;BME280;64102;48.628;9.002;2024-02-26T04:44:39;94095.84;;;6.57;88.93
75521;BME280;64102;48.628;9.002;2024-02-26T04:47:04;94088.34;;;6.55;88.30
75521;BME280;64102;48.628;9.002;2024-02-26T04:49:30;94097.16;;;6.53;88.53
75521;BME280;64102;48.628;9.002;2024-02-26T04:51:55;94092.19;;;6.51;88.97
75521;BME280;64102;48.628;9.002;2024-02-26T04:54:21;94098.75;;;6.54;94.12
75521;BME280;64102;48.628;9.002;2024-02-26T04:56:46;94101.00;;;6.41;95.39
75521;BME280;64102;48.628;9.002;2024-02-26T04:59:12;94119.25;;;6.13;100.00
75521;BME280;64102;48.628;9.002;2024-02-26T05:01:37;94116.31;;;5.76;100.00
75521;BME280;64102;48.628;9.002;2024-02-26T05:04:03;94108.75;;;5.58;100.00
75521;BME280;64102;48.628;9.002;2024-02-26T05:06:28;94108.22;;;5.30;100.00
75521;BME280;64102;48.628;9.002;2024-02-26T05:08:54;94107.53;;;5.20;100.00
75521;BME280;64102;48.628;9.002;2024-02-26T05:11:19;94110.22;;;5.11;100.00
75521;BME280;64102;48.628;9.002;2024-02-26T05:13:45;94118.03;;;5.09;100.00
75521;BME280;64102;48.628;9.002;2024-02-26T05:16:10;94124.59;;;5.04;100.00
75521;BME280;64102;48.628;9.002;2024-02-26T05:18:36;94128.78;;;4.87;100.00
75521;BME280;64102;48.628;9.002;2024-02-26T05:21:01;94143.44;;;4.77;100.00
75521;BME280;64102;48.628;9.002;2024-02-26T05:23:28;94157.75;;;4.70;100.00
75521;BME280;64102;48.628;9.002;2024-02-26T05:25:54;94159.00;;;4.66;100.00
75521;BME280;64102;48.628;9.002;2024-02-26T05:28:19;94152.91;;;4.59;100.00
75521;BME280;64102;48.628;9.002;2024-02-26T05:30:46;94151.63;;;4.55;100.00
75521;BME280;64102;48.628;9.002;2024-02-26T05:33:11;94160.66;;;4.49;100.00
75521;BME280;64102;48.628;9.002;2024-02-26T05:35:37;94155.06;;;4.45;100.00
75521;BME280;64102;48.628;9.002;2024-02-26T05:38:03;94153.63;;;4.51;100.00
75521;BME280;64102;48.628;9.002;2024-02-26T05:40:28;94150.31;;;4.50;100.00
75521;BME280;64102;48.628;9.002;2024-02-26T05:42:54;94140.50;;;4.20;100.00
75521;BME280;64102;48.628;9.002;2024-02-26T05:45:19;94146.72;;;4.00;100.00
75521;BME280;64102;48.628;9.002;2024-02-26T05:47:44;94148.91;;;3.95;100.00
75521;BME280;64102;48.628;9.002;2024-02-26T05:50:10;94147.09;;;3.70;100.00
75521;BME280;64102;48.628;9.002;2024-02-26T05:52:37;94161.38;;;3.53;100.00
75521;BME280;64102;48.628;9.002;2024-02-26T05:55:04;94149.00;;;3.40;100.00
75521;BME280;64102;48.628;9.002;2024-02-26T05:57:29;94162.31;;;3.34;100.00
75521;BME280;64102;48.628;9.002;2024-02-26T05:59:55;94163.44;;;3.22;100.00
75521;BME280;64102;48.628;9.002;2024-02-26T06:02:20;94161.84;;;3.21;100.00
75521;BME280;64102;48.628;9.002;2024-02-26T06:04:45;94157.75;;;3.38;100.00
75521;BME280;64102;48.628;9.002;2024-02-26T06:07:12;94168.59;;;3.57;100.00
75521;BME280;64102;48.628;9.002;2024-02-26T06:09:37;94163.06;;;3.44;100.00
75521;BME280;64102;48.628;9.002;2024-02-26T06:12:03;94169.69;;;3.37;100.00
75521;BME280;64102;48.628;9.002;2024-02-26T06:14:28;94171.19;;;3.30;100.00
75521;BME280;64102;48.628;9.002;2024-02-26T06:16:53;94171.75;;;3.24;100.00
75521;BME280;64102;48.628;9.002;2024-02-26T06:19:19;94178.16;;;3.28;100.00
75521;BME280;64102;48.628;9.002;2024-02-26T06:21:44;94178.47;;;3.25;100.00
75521;BME280;64102;48.628;9.002;2024-02-26T06:24:09;94184.06;;;3.29;100.00
75521;BME280;64102;48.628;9.002;2024-02-26T06:26:35;94189.69;;;3.32;100.00
75521;BME280;64102;48.628;9.002;2024-02-26T06:29:00;94192.63;;;3.37;100.00
75521;BME280;64102;48.628;9.002;2024-02-26T06:31:26;94198.09;;;3.42;100.00
75521;BME280;64102;48.628;9.002;2024-02-26T06:33:53;94196.06;;;3.46;100.00
75521;BME280;64102;48.628;9.002;2024-02-26T06:36:18;94193.50;;;3.46;100.00
75521;BME280;64102;48.628;9.002;2024-02-26T06:38:44;94199.50;;;3.54;100.00
75521;BME280;64102;48.628;9.002;2024-02-26T06:41:09;94204.31;;;3.57;100.00
75521;BME280;64102;48.628;9.002;2024-02-26T06:43:36;94209.41;;;3.57;100.00
75521;BME280;64102;48.628;9.002;2024-02-26T06:46:02;94210.47;;;3.65;100.00
75521;BME280;64102;48.628;9.002;2024-02-26T06:48:27;94213.78;;;3.75;100.00
75521;BME280;64102;48.628;9.002;2024-02-26T06:50:52;94218.66;;;3.86;100.00
75521;BME280;64102;48.628;9.002;2024-02-26T06:53:18;94215.03;;;4.06;100.00
75521;BME280;64102;48.628;9.002;2024-02-26T06:55:44;94225.16;;;4.33;100.00
75521;BME280;64102;48.628;9.002;2024-02-26T06:58:09;94228.06;;;4.56;100.00
75521;BME280;64102;48.628;9.002;2024-02-26T07:00:35;94223.38;;;4.69;100.00
75521;BME280;64102;48.628;9.002;2024-02-26T07:03:00;94220.75;;;4.79;100.00
75521;BME280;64102;48.628;9.002;2024-02-26T07:05:27;94216.28;;;4.81;100.00
75521;BME280;64102;48.628;9.002;2024-02-26T07:07:52;94219.66;;;4.81;100.00
75521;BME280;64102;48.628;9.002;2024-02-26T07:10:18;94232.72;;;4.78;100.00
75521;BME280;64102;48.628;9.002;2024-02-26T07:12:43;94228.56;;;4.77;100.00
75521;BME280;64102;48.628;9.002;2024-02-26T07:15:09;94229.34;;;4.78;100.00
75521;BME280;64102;48.628;9.002;2024-02-26T07:17:35;94222.50;;;4.78;100.00
75521;BME280;64102;48.628;9.002;2024-02-26T07:20:01;94228.41;;;4.79;100.00
75521;BME280;64102;48.628;9.002;2024-02-26T07:22:29;94238.63;;;4.79;100.00
75521;BME280;64102;48.628;9.002;2024-02-26T07:24:55;94236.88;;;4.79;100.00
75521;BME280;64102;48.628;9.002;2024-02-26T07:27:20;94235.63;;;4.83;100.00
75521;BME280;64102;48.628;9.002;2024-02-26T07:29:46;94232.63;;;4.88;100.00
75521;BME280;64102;48.628;9.002;2024-02-26T07:32:11;94235.97;;;4.88;100.00
75521;BME280;64102;48.628;9.002;2024-02-26T07:34:37;94232.84;;;4.94;100.00
75521;BME280;64102;48.628;9.002;2024-02-26T07:37:06;94236.44;;;5.10;100.00
75521;BME280;64102;48.628;9.002;2024-02-26T07:39:31;94238.19;;;5.09;100.00
75521;BME280;64102;48.628;9.002;2024-02-26T07:41:57;94240.53;;;5.28;100.00
75521;BME280;64102;48.628;9.002;2024-02-26T07:44:22;94243.06;;;5.54;100.00
75521;BME280;64102;48.628;9.002;2024-02-26T07:46:48;94238.31;;;5.67;100.00
75521;BME280;64102;48.628;9.002;2024-02-26T07:49:13;94241.06;;;5.74;100.00
75521;BME280;64102;48.628;9.002;2024-02-26T07:51:39;94242.91;;;5.90;100.00
75521;BME280;64102;48.628;9.002;2024-02-26T07:54:04;94246.34;;;6.06;100.00
75521;BME280;64102;48.628;9.002;2024-02-26T07:56:29;94246.34;;;6.06;100.00
75521;BME280;64102;48.628;9.002;2024-02-26T07:58:55;94252.41;;;6.13;100.00
75521;BME280;64102;48.628;9.002;2024-02-26T08:01:20;94244.09;;;6.11;100.00
75521;BME280;64102;48.628;9.002;2024-02-26T08:03:45;94255.44;;;6.09;100.00
75521;BME280;64102;48.628;9.002;2024-02-26T08:06:11;94246.97;;;6.16;100.00
75521;BME280;64102;48.628;9.002;2024-02-26T08:08:36;94238.88;;;6.29;100.00
75521;BME280;64102;48.628;9.002;2024-02-26T08:11:01;94235.81;;;6.34;100.00
75521;BME280;64102;48.628;9.002;2024-02-26T08:13:27;94238.22;;;6.35;100.00
75521;BME280;64102;48.628;9.002;2024-02-26T08:15:52;94231.19;;;6.37;100.00
75521;BME280;64102;48.628;9.002;2024-02-26T08:18:18;94233.13;;;6.67;100.00
75521;BME280;64102;48.628;9.002;2024-02-26T08:20:44;94231.03;;;6.79;100.00
75521;BME280;64102;48.628;9.002;2024-02-26T08:23:10;94230.84;;;6.97;100.00
75521;BME280;64102;48.628;9.002;2024-02-26T08:25:35;94233.72;;;7.02;100.00
75521;BME280;64102;48.628;9.002;2024-02-26T08:28:00;94235.97;;;7.13;100.00
75521;BME280;64102;48.628;9.002;2024-02-26T08:30:26;94242.88;;;7.04;100.00
75521;BME280;64102;48.628;9.002;2024-02-26T08:32:51;94236.94;;;6.88;100.00
75521;BME280;64102;48.628;9.002;2024-02-26T08:35:17;94253.63;;;7.00;100.00
75521;BME280;64102;48.628;9.002;2024-02-26T08:37:47;94252.50;;;6.86;100.00
75521;BME280;64102;48.628;9.002;2024-02-26T08:40:13;94256.34;;;6.82;100.00
75521;BME280;64102;48.628;9.002;2024-02-26T08:42:38;94255.84;;;6.46;100.00
75521;BME280;64102;48.628;9.002;2024-02-26T08:45:04;94252.16;;;6.49;100.00
75521;BME280;64102;48.628;9.002;2024-02-26T08:47:29;94259.22;;;6.55;100.00
75521;BME280;64102;48.628;9.002;2024-02-26T08:49:55;94262.13;;;6.60;100.00
75521;BME280;64102;48.628;9.002;2024-02-26T08:52:20;94265.63;;;6.67;100.00
75521;BME280;64102;48.628;9.002;2024-02-26T08:54:47;94269.81;;;6.76;100.00
75521;BME280;64102;48.628;9.002;2024-02-26T08:57:12;94273.34;;;6.91;100.00
75521;BME280;64102;48.628;9.002;2024-02-26T08:59:37;94267.72;;;6.88;100.00
75521;BME280;64102;48.628;9.002;2024-02-26T09:02:03;94275.59;;;6.86;100.00
75521;BME280;64102;48.628;9.002;2024-02-26T09:04:28;94274.59;;;6.79;100.00
75521;BME280;64102;48.628;9.002;2024-02-26T09:06:53;94260.81;;;6.88;100.00
75521;BME280;64102;48.628;9.002;2024-02-26T09:09:20;94262.59;;;6.88;100.00
75521;BME280;64102;48.628;9.002;2024-02-26T09:11:47;94264.38;;;6.87;100.00
75521;BME280;64102;48.628;9.002;2024-02-26T09:14:12;94274.13;;;7.00;100.00
75521;BME280;64102;48.628;9.002;2024-02-26T09:16:38;94263.72;;;6.93;100.00
75521;BME280;64102;48.628;9.002;2024-02-26T09:19:03;94265.31;;;6.94;100.00
75521;BME280;64102;48.628;9.002;2024-02-26T09:21:28;94260.66;;;6.98;100.00
75521;BME280;64102;48.628;9.002;2024-02-26T09:23:54;94256.81;;;6.94;100.00
75521;BME280;64102;48.628;9.002;2024-02-26T09:26:19;94259.38;;;7.18;100.00
75521;BME280;64102;48.628;9.002;2024-02-26T09:28:45;94266.72;;;7.45;100.00
75521;BME280;64102;48.628;9.002;2024-02-26T09:31:10;94258.56;;;7.73;100.00
75521;BME280;64102;48.628;9.002;2024-02-26T09:33:36;94254.25;;;8.12;100.00
75521;BME280;64102;48.628;9.002;2024-02-26T09:36:02;94265.84;;;8.62;100.00
75521;BME280;64102;48.628;9.002;2024-02-26T09:38:27;94255.47;;;9.15;100.00
75521;BME280;64102;48.628;9.002;2024-02-26T09:40:53;94258.28;;;9.28;100.00
75521;BME280;64102;48.628;9.002;2024-02-26T09:43:21;94256.97;;;9.76;100.00
75521;BME280;64102;48.628;9.002;2024-02-26T09:45:50;94257.50;;;10.16;96.05
75521;BME280;64102;48.628;9.002;2024-02-26T09:48:16;94260.69;;;9.88;99.40
75521;BME280;64102;48.628;9.002;2024-02-26T09:50:43;94267.25;;;10.06;96.22
75521;BME280;64102;48.628;9.002;2024-02-26T09:53:10;94267.78;;;9.86;96.82
75521;BME280;64102;48.628;9.002;2024-02-26T09:55:36;94270.66;;;10.42;87.47
75521;BME280;64102;48.628;9.002;2024-02-26T09:58:04;94272.28;;;10.64;82.31
75521;BME280;64102;48.628;9.002;2024-02-26T10:00:30;94278.34;;;11.20;76.91
75521;BME280;64102;48.628;9.002;2024-02-26T10:03:03;94276.09;;;12.35;72.84
75521;BME280;64102;48.628;9.002;2024-02-26T10:05:29;94285.47;;;12.43;72.24
75521;BME280;64102;48.628;9.002;2024-02-26T10:07:56;94267.69;;;13.86;65.53
75521;BME280;64102;48.628;9.002;2024-02-26T10:10:23;94281.31;;;14.46;55.78
75521;BME280;64102;48.628;9.002;2024-02-26T10:12:48;94291.50;;;14.34;57.15
75521;BME280;64102;48.628;9.002;2024-02-26T10:15:14;94289.06;;;13.35;57.86
75521;BME280;64102;48.628;9.002;2024-02-26T10:17:40;94288.09;;;12.49;57.93
75521;BME280;64102;48.628;9.002;2024-02-26T10:20:18;94280.69;;;11.64;68.74
75521;BME280;64102;48.628;9.002;2024-02-26T10:22:46;94284.84;;;10.89;72.22
75521;BME280;64102;48.628;9.002;2024-02-26T10:25:12;94284.88;;;10.53;71.56
75521;BME280;64102;48.628;9.002;2024-02-26T10:27:37;94288.84;;;10.34;80.29
75521;BME280;64102;48.628;9.002;2024-02-26T10:30:16;94293.47;;;10.24;81.05
75521;BME280;64102;48.628;9.002;2024-02-26T10:32:45;94281.09;;;10.05;81.02
75521;BME280;64102;48.628;9.002;2024-02-26T10:35:18;94281.91;;;10.05;77.67
75521;BME280;64102;48.628;9.002;2024-02-26T10:37:46;94275.28;;;9.81;76.25
75521;BME280;64102;48.628;9.002;2024-02-26T10:40:13;94280.22;;;9.98;81.81
75521;BME280;64102;48.628;9.002;2024-02-26T10:42:39;94288.69;;;10.21;83.88
75521;BME280;64102;48.628;9.002;2024-02-26T10:45:06;94288.34;;;10.45;72.73
75521;BME280;64102;48.628;9.002;2024-02-26T10:47:31;94286.22;;;10.49;68.34
75521;BME280;64102;48.628;9.002;2024-02-26T10:49:59;94293.34;;;10.47;69.86
75521;BME280;64102;48.628;9.002;2024-02-26T10:52:25;94288.94;;;10.62;79.03
75521;BME280;64102;48.628;9.002;2024-02-26T10:54:53;94302.41;;;11.00;74.59
75521;BME280;64102;48.628;9.002;2024-02-26T10:57:19;94309.00;;;11.23;73.29
75521;BME280;64102;48.628;9.002;2024-02-26T10:59:46;94308.91;;;11.66;61.43
75521;BME280;64102;48.628;9.002;2024-02-26T11:02:13;94312.06;;;12.24;63.94
75521;BME280;64102;48.628;9.002;2024-02-26T11:04:39;94307.38;;;12.47;60.29
75521;BME280;64102;48.628;9.002;2024-02-26T11:07:05;94304.56;;;12.35;56.78
75521;BME280;64102;48.628;9.002;2024-02-26T11:09:33;94316.47;;;11.67;59.62
75521;BME280;64102;48.628;9.002;2024-02-26T11:12:00;94314.22;;;11.09;71.11
75521;BME280;64102;48.628;9.002;2024-02-26T11:14:29;94315.69;;;11.18;68.15
75521;BME280;64102;48.628;9.002;2024-02-26T11:16:55;94322.81;;;11.16;65.65
75521;BME280;64102;48.628;9.002;2024-02-26T11:19:21;94317.91;;;11.00;64.43
75521;BME280;64102;48.628;9.002;2024-02-26T11:21:47;94321.22;;;11.15;61.12
75521;BME280;64102;48.628;9.002;2024-02-26T11:24:14;94327.91;;;11.09;59.59
75521;BME280;64102;48.628;9.002;2024-02-26T11:26:46;94331.97;;;11.18;59.52
75521;BME280;64102;48.628;9.002;2024-02-26T11:29:17;94329.34;;;11.33;66.75
75521;BME280;64102;48.628;9.002;2024-02-26T11:31:44;94324.13;;;11.05;62.06
75521;BME280;64102;48.628;9.002;2024-02-26T11:34:10;94321.25;;;11.43;64.71
75521;BME280;64102;48.628;9.002;2024-02-26T11:36:36;94313.50;;;11.43;67.01
75521;BME280;64102;48.628;9.002;2024-02-26T11:39:04;94321.69;;;11.74;63.09
75521;BME280;64102;48.628;9.002;2024-02-26T11:41:30;94334.19;;;11.98;56.26
75521;BME280;64102;48.628;9.002;2024-02-26T11:44:00;94323.47;;;12.01;54.25
75521;BME280;64102;48.628;9.002;2024-02-26T11:46:41;94326.78;;;11.40;56.81
75521;BME280;64102;48.628;9.002;2024-02-26T11:49:40;94324.22;;;11.67;56.77
75521;BME280;64102;48.628;9.002;2024-02-26T11:52:08;94333.47;;;11.77;60.78
75521;BME280;64102;48.628;9.002;2024-02-26T11:59:45;94341.13;;;11.21;56.95
75521;BME280;64102;48.628;9.002;2024-02-26T12:02:10;94342.72;;;11.01;59.62
75521;BME280;64102;48.628;9.002;2024-02-26T12:04:38;94339.34;;;10.79;67.85
75521;BME280;64102;48.628;9.002;2024-02-26T12:07:03;94339.06;;;10.74;66.64
75521;BME280;64102;48.628;9.002;2024-02-26T12:09:37;94337.13;;;11.18;64.90
75521;BME280;64102;48.628;9.002;2024-02-26T12:12:04;94336.31;;;11.60;64.11
75521;BME280;64102;48.628;9.002;2024-02-26T12:14:33;94343.34;;;12.01;63.79
75521;BME280;64102;48.628;9.002;2024-02-26T12:16:58;94341.13;;;12.32;61.35
75521;BME280;64102;48.628;9.002;2024-02-26T12:19:24;94347.50;;;12.77;53.77
75521;BME280;64102;48.628;9.002;2024-02-26T12:21:53;94339.03;;;13.03;50.67
75521;BME280;64102;48.628;9.002;2024-02-26T12:24:20;94340.91;;;13.68;51.40
75521;BME280;64102;48.628;9.002;2024-02-26T12:26:46;94340.69;;;13.96;52.72
75521;BME280;64102;48.628;9.002;2024-02-26T12:29:12;94333.63;;;14.29;51.76
75521;BME280;64102;48.628;9.002;2024-02-26T12:31:37;94324.38;;;14.98;49.44
75521;BME280;64102;48.628;9.002;2024-02-26T12:34:04;94332.03;;;15.80;47.25
75521;BME280;64102;48.628;9.002;2024-02-26T12:36:30;94336.56;;;15.35;49.10
75521;BME280;64102;48.628;9.002;2024-02-26T12:38:56;94333.66;;;15.18;49.67
75521;BME280;64102;48.628;9.002;2024-02-26T12:41:22;94330.91;;;14.69;50.20
75521;BME280;64102;48.628;9.002;2024-02-26T12:43:47;94325.13;;;13.96;52.91
75521;BME280;64102;48.628;9.002;2024-02-26T12:46:13;94329.53;;;13.36;56.19
75521;BME280;64102;48.628;9.002;2024-02-26T12:48:42;94330.63;;;13.01;55.07
75521;BME280;64102;48.628;9.002;2024-02-26T12:51:08;94334.28;;;13.26;56.07
75521;BME280;64102;48.628;9.002;2024-02-26T12:53:35;94346.09;;;13.68;54.63
75521;BME280;64102;48.628;9.002;2024-02-26T12:56:00;94339.09;;;13.75;57.08
75521;BME280;64102;48.628;9.002;2024-02-26T12:58:29;94342.28;;;13.58;56.40
75521;BME280;64102;48.628;9.002;2024-02-26T13:00:56;94341.47;;;13.90;53.05